createdAt,value
2019-04-04T00:00:57.986Z,1.93
2019-04-04T00:03:26.386Z,1.97
2019-04-04T00:05:56.392Z,1.73
2019-04-04T00:08:25.071Z,1.40
2019-04-04T00:10:53.603Z,1.20
2019-04-04T00:13:21.995Z,1.10
2019-04-04T00:15:50.424Z,1.37
2019-04-04T00:18:18.818Z,1.10
2019-04-04T00:20:47.203Z,1.23
2019-04-04T00:23:15.617Z,2.50
2019-04-04T00:25:44.042Z,2.03
2019-04-04T00:28:12.962Z,1.23
2019-04-04T00:30:42.759Z,1.63
2019-04-04T00:33:11.151Z,2.07
2019-04-04T00:35:39.911Z,2.37
2019-04-04T00:38:08.326Z,1.97
2019-04-04T00:40:36.690Z,2.17
2019-04-04T00:43:05.126Z,2.07
2019-04-04T00:45:33.515Z,2.87
2019-04-04T00:48:03.057Z,2.97
2019-04-04T00:50:32.123Z,3.07
2019-04-04T00:53:00.524Z,3.50
2019-04-04T00:55:29.051Z,2.80
2019-04-04T00:57:57.448Z,2.70
2019-04-04T01:00:25.875Z,2.60
2019-04-04T01:02:54.279Z,2.63
2019-04-04T01:05:22.669Z,2.17
2019-04-04T01:07:51.079Z,2.93
2019-04-04T01:10:19.647Z,2.93
2019-04-04T01:12:48.055Z,2.47
2019-04-04T01:15:16.523Z,1.80
2019-04-04T01:17:45.048Z,2.07
2019-04-04T01:20:13.560Z,1.70
2019-04-04T01:22:41.955Z,1.87
2019-04-04T01:25:10.447Z,2.10
2019-04-04T01:27:38.846Z,1.63
2019-04-04T01:30:07.871Z,2.93
2019-04-04T01:32:36.281Z,2.30
2019-04-04T01:35:06.630Z,3.03
2019-04-04T01:37:35.026Z,2.83
2019-04-04T01:40:03.868Z,2.83
2019-04-04T01:42:32.272Z,2.90
2019-04-04T01:45:00.655Z,3.60
2019-04-04T01:47:29.130Z,2.37
2019-04-04T01:49:57.559Z,3.10
2019-04-04T01:52:27.849Z,2.90
2019-04-04T01:54:56.095Z,2.87
2019-04-04T01:57:24.523Z,3.40
2019-04-04T01:59:53.047Z,2.60
2019-04-04T02:02:21.454Z,3.07
2019-04-04T02:04:49.957Z,3.13
2019-04-04T02:07:18.350Z,3.37
2019-04-04T02:09:46.747Z,4.70
2019-04-04T02:12:15.155Z,4.63
2019-04-04T02:14:43.658Z,4.23
2019-04-04T02:17:12.143Z,5.23
2019-04-04T02:19:40.530Z,5.47
2019-04-04T02:22:08.927Z,6.20
2019-04-04T02:24:37.331Z,6.17
2019-04-04T02:27:06.933Z,5.87
2019-04-04T02:29:36.146Z,7.73
2019-04-04T02:32:06.235Z,5.97
2019-04-04T02:34:54.128Z,6.93
2019-04-04T02:37:22.531Z,6.33
2019-04-04T02:39:50.941Z,7.37
2019-04-04T02:42:22.231Z,6.93
2019-04-04T02:44:49.454Z,6.27
2019-04-04T02:47:18.343Z,7.57
2019-04-04T02:49:46.848Z,5.27
2019-04-04T02:52:15.436Z,5.47
2019-04-04T02:54:43.851Z,5.87
2019-04-04T02:57:12.231Z,6.03
2019-04-04T02:59:40.637Z,5.47
2019-04-04T03:02:09.046Z,7.87
2019-04-04T03:04:37.436Z,7.13
2019-04-04T03:07:05.918Z,6.23
2019-04-04T03:09:34.376Z,7.67
2019-04-04T03:12:02.790Z,5.70
2019-04-04T03:14:31.192Z,5.80
2019-04-04T03:16:59.597Z,7.00
2019-04-04T03:19:28.004Z,6.10
2019-04-04T03:21:56.412Z,7.77
2019-04-04T03:24:25.176Z,7.13
2019-04-04T03:26:53.729Z,7.57
2019-04-04T03:29:22.239Z,8.80
2019-04-04T03:31:50.652Z,10.60
2019-04-04T03:34:19.055Z,9.57
2019-04-04T03:36:47.452Z,9.00
2019-04-04T03:39:19.111Z,10.10
2019-04-04T03:41:46.063Z,9.73
2019-04-04T03:44:14.510Z,9.23
2019-04-04T03:46:42.946Z,10.83
2019-04-04T03:49:11.360Z,8.87
2019-04-04T03:51:39.883Z,8.63
2019-04-04T03:54:09.924Z,10.70
2019-04-04T03:56:39.474Z,8.27
2019-04-04T03:59:08.125Z,10.30
2019-04-04T04:01:36.533Z,10.77
2019-04-04T04:04:04.929Z,9.70
2019-04-04T04:06:33.436Z,10.50
2019-04-04T04:09:01.917Z,9.87
2019-04-04T04:11:30.322Z,10.53
2019-04-04T04:13:58.718Z,11.60
2019-04-04T04:16:27.140Z,10.33
2019-04-04T04:18:56.079Z,11.00
2019-04-04T04:21:24.623Z,12.13
2019-04-04T04:23:56.476Z,11.60
2019-04-04T04:26:23.339Z,12.53
2019-04-04T04:28:53.317Z,9.73
2019-04-04T04:31:22.156Z,12.53
2019-04-04T04:33:50.588Z,13.97
2019-04-04T04:36:18.992Z,14.37
2019-04-04T04:38:47.407Z,14.23
2019-04-04T04:41:19.797Z,12.97
2019-04-04T04:43:45.939Z,14.93
2019-04-04T04:46:16.892Z,14.63
2019-04-04T04:48:44.754Z,15.47
2019-04-04T04:51:13.320Z,16.03
2019-04-04T04:53:41.832Z,18.33
2019-04-04T04:56:10.479Z,14.17
2019-04-04T04:58:41.872Z,17.70
2019-04-04T05:01:09.003Z,17.37
2019-04-04T05:03:37.551Z,17.40
2019-04-04T05:06:06.023Z,18.43
2019-04-04T05:08:34.421Z,17.30
2019-04-04T05:11:02.895Z,14.40
2019-04-04T05:13:31.307Z,16.83
2019-04-04T05:16:00.095Z,19.77
2019-04-04T05:18:28.531Z,18.47
2019-04-04T05:21:01.469Z,19.43
2019-04-04T05:23:27.972Z,18.53
2019-04-04T05:25:56.387Z,18.83
2019-04-04T05:28:24.938Z,19.93
2019-04-04T05:30:53.439Z,18.83
2019-04-04T05:33:22.940Z,17.23
2019-04-04T05:35:51.878Z,17.30
2019-04-04T05:38:20.280Z,19.07
2019-04-04T05:40:48.765Z,17.17
2019-04-04T05:43:17.173Z,17.40
2019-04-04T05:45:45.970Z,17.33
2019-04-04T05:48:14.462Z,16.60
2019-04-04T05:50:43.563Z,15.23
2019-04-04T05:53:12.660Z,17.27
2019-04-04T05:55:41.870Z,16.50
2019-04-04T05:58:10.867Z,14.17
2019-04-04T06:00:41.179Z,16.00
2019-04-04T06:03:09.576Z,16.97
2019-04-04T06:05:38.007Z,15.67
2019-04-04T06:08:08.107Z,13.70
2019-04-04T06:10:36.823Z,14.20
2019-04-04T06:13:05.234Z,15.13
2019-04-04T06:15:33.702Z,14.73
2019-04-04T06:18:02.104Z,14.70
2019-04-04T06:20:30.691Z,13.43
2019-04-04T06:22:59.142Z,15.67
2019-04-04T06:25:27.574Z,14.33
2019-04-04T06:27:56.040Z,15.20
2019-04-04T06:30:24.450Z,15.67
2019-04-04T06:32:52.881Z,17.13
2019-04-04T06:35:21.281Z,14.27
2019-04-04T06:37:51.452Z,13.87
2019-04-04T06:40:19.883Z,13.17
2019-04-04T06:42:48.289Z,14.93
2019-04-04T06:45:16.695Z,14.97
2019-04-04T06:47:45.115Z,15.47
2019-04-04T06:50:14.052Z,14.60
2019-04-04T06:52:42.457Z,16.50
2019-04-04T06:55:11.004Z,13.00
2019-04-04T06:57:39.411Z,13.60
2019-04-04T07:00:09.173Z,15.07
2019-04-04T07:02:37.584Z,16.10
2019-04-04T07:05:10.537Z,16.10
2019-04-04T07:07:38.466Z,14.70
2019-04-04T07:10:07.620Z,19.63
2019-04-04T07:12:38.026Z,20.83
2019-04-04T07:15:12.486Z,17.60
2019-04-04T07:17:41.163Z,17.10
2019-04-04T07:20:10.155Z,17.63
2019-04-04T07:22:38.575Z,20.87
2019-04-04T07:25:07.349Z,17.20
2019-04-04T07:27:35.879Z,15.83
2019-04-04T07:30:06.049Z,18.63
2019-04-04T07:32:34.555Z,16.13
2019-04-04T07:35:03.039Z,17.07
2019-04-04T07:37:31.439Z,18.90
2019-04-04T07:40:03.126Z,18.20
2019-04-04T07:42:30.055Z,18.07
2019-04-04T07:44:58.771Z,19.90
2019-04-04T07:47:27.258Z,18.43
2019-04-04T07:49:55.679Z,16.90
2019-04-04T07:52:24.172Z,17.43
2019-04-04T07:54:52.586Z,19.93
2019-04-04T07:57:21.404Z,19.03
2019-04-04T07:59:49.816Z,18.87
2019-04-04T08:02:18.284Z,18.07
2019-04-04T08:04:46.714Z,17.50
2019-04-04T08:07:15.216Z,18.07
2019-04-04T08:09:43.612Z,19.23
2019-04-04T08:12:13.582Z,19.30
2019-04-04T08:14:42.013Z,19.50
2019-04-04T08:17:10.427Z,16.40
2019-04-04T08:19:38.923Z,18.93
2019-04-04T08:22:07.453Z,16.73
2019-04-04T08:24:35.919Z,15.73
2019-04-04T08:27:04.459Z,14.97
2019-04-04T08:29:33.055Z,15.73
2019-04-04T08:32:01.456Z,15.77
2019-04-04T08:34:30.238Z,16.57
2019-04-04T08:36:58.892Z,20.37
2019-04-04T08:39:27.426Z,16.97
2019-04-04T08:42:41.698Z,18.93
2019-04-04T08:45:38.090Z,18.20
2019-04-04T08:48:02.168Z,19.60
2019-04-04T08:50:30.603Z,20.27
2019-04-04T08:52:59.007Z,20.20
2019-04-04T08:55:27.403Z,20.40
2019-04-04T08:57:55.923Z,17.63
2019-04-04T09:00:24.328Z,17.93
2019-04-04T09:02:52.974Z,19.63
2019-04-04T09:05:21.394Z,15.23
2019-04-04T09:07:49.857Z,18.43
2019-04-04T09:10:18.599Z,18.67
2019-04-04T09:12:47.081Z,16.87
2019-04-04T09:15:16.056Z,18.70
2019-04-04T09:17:44.455Z,15.73
2019-04-04T09:20:13.186Z,19.53
2019-04-04T09:22:41.668Z,20.70
2019-04-04T09:25:10.806Z,18.20
2019-04-04T09:27:39.562Z,17.83
2019-04-04T09:30:08.719Z,17.47
2019-04-04T09:32:39.923Z,18.27
2019-04-04T09:35:09.080Z,17.13
2019-04-04T09:37:37.503Z,20.23
2019-04-04T09:40:07.516Z,19.17
2019-04-04T09:42:35.931Z,18.30
2019-04-04T09:45:06.972Z,16.83
2019-04-04T09:47:35.588Z,15.37
2019-04-04T09:50:05.127Z,16.30
2019-04-04T09:52:33.638Z,16.33
2019-04-04T09:55:02.103Z,19.97
2019-04-04T09:57:30.503Z,15.77
2019-04-04T09:59:58.930Z,13.03
2019-04-04T10:02:27.415Z,15.13
2019-04-04T10:04:55.869Z,15.73
2019-04-04T10:07:25.266Z,14.70
2019-04-04T10:09:54.001Z,14.83
2019-04-04T10:12:22.439Z,14.17
2019-04-04T10:14:51.141Z,11.73
2019-04-04T10:17:19.639Z,12.27
2019-04-04T10:19:48.030Z,9.37
2019-04-04T10:22:16.460Z,9.73
2019-04-04T10:24:44.848Z,12.50
2019-04-04T10:27:13.258Z,9.83
2019-04-04T10:29:41.832Z,9.17
2019-04-04T10:32:10.250Z,8.57
2019-04-04T10:34:38.657Z,10.83
2019-04-04T10:37:07.051Z,9.67
2019-04-04T10:39:35.490Z,12.57
2019-04-04T10:42:04.367Z,8.57
2019-04-04T10:44:32.895Z,9.03
2019-04-04T10:47:01.312Z,9.70
2019-04-04T10:49:29.798Z,8.50
2019-04-04T10:51:58.251Z,8.17
2019-04-04T10:54:26.996Z,7.73
2019-04-04T10:56:55.491Z,6.37
2019-04-04T10:59:23.967Z,7.20
2019-04-04T11:01:52.627Z,9.93
2019-04-04T11:04:21.019Z,8.10
2019-04-04T11:06:49.451Z,11.90
2019-04-04T11:09:17.845Z,7.63
2019-04-04T11:11:46.243Z,6.53
2019-04-04T11:14:14.717Z,5.90
2019-04-04T11:16:43.238Z,6.07
2019-04-04T11:19:11.641Z,6.23
2019-04-04T11:21:40.036Z,6.40
2019-04-04T11:24:08.774Z,6.47
2019-04-04T11:26:37.337Z,6.63
2019-04-04T11:29:05.740Z,6.23
2019-04-04T11:31:34.142Z,5.27
2019-04-04T11:34:02.544Z,6.53
2019-04-04T11:36:30.959Z,5.90
2019-04-04T11:38:59.447Z,6.37
2019-04-04T11:41:27.944Z,6.03
2019-04-04T11:43:56.358Z,5.43
2019-04-04T11:46:24.766Z,5.70
2019-04-04T11:48:53.256Z,5.43
2019-04-04T11:51:21.648Z,4.73
2019-04-04T11:53:50.116Z,4.80
2019-04-04T11:56:18.579Z,4.37
2019-04-04T11:58:47.113Z,4.87
2019-04-04T12:01:17.147Z,3.97
2019-04-04T12:03:45.565Z,3.57
2019-04-04T12:06:14.301Z,4.23
2019-04-04T12:08:42.699Z,3.57
2019-04-04T12:11:11.179Z,3.10
2019-04-04T12:13:39.571Z,3.00
2019-04-04T12:16:07.964Z,3.90
2019-04-04T12:18:36.369Z,2.77
2019-04-04T12:21:04.864Z,3.20
2019-04-04T12:23:33.255Z,3.73
2019-04-04T12:26:01.662Z,2.47
2019-04-04T12:28:30.080Z,2.40
2019-04-04T12:30:58.473Z,1.73
2019-04-04T12:33:26.888Z,2.87
2019-04-04T12:35:55.619Z,2.77
2019-04-04T12:38:24.010Z,1.70
2019-04-04T12:40:52.407Z,1.57
2019-04-04T12:43:20.816Z,1.67
2019-04-04T12:45:49.232Z,1.50
2019-04-04T12:48:17.640Z,1.60
2019-04-04T12:50:48.327Z,2.23
2019-04-04T12:53:16.223Z,1.77
2019-04-04T12:55:44.644Z,1.70
2019-04-04T12:58:13.119Z,1.60
2019-04-04T13:00:41.834Z,1.50
2019-04-04T13:03:13.395Z,1.27
2019-04-04T13:05:41.878Z,1.20
2019-04-04T13:08:10.790Z,1.00
2019-04-04T13:10:39.254Z,0.97
2019-04-04T13:13:07.665Z,1.30
2019-04-04T13:15:36.087Z,1.53
2019-04-04T13:18:04.710Z,1.37
2019-04-04T13:20:33.115Z,1.50
2019-04-04T13:23:01.519Z,1.97
2019-04-04T13:25:29.982Z,1.73
2019-04-04T13:27:58.474Z,1.73
2019-04-04T13:30:26.943Z,1.80
2019-04-04T13:32:55.351Z,1.50
2019-04-04T13:35:23.743Z,1.70
2019-04-04T13:37:52.230Z,1.90
2019-04-04T13:40:20.623Z,1.80
2019-04-04T13:42:52.476Z,1.30
2019-04-04T13:45:19.151Z,1.97
2019-04-04T13:47:47.762Z,1.93
2019-04-04T13:50:19.537Z,1.50
2019-04-04T13:52:46.768Z,1.70
2019-04-04T13:55:18.115Z,1.87
2019-04-04T13:57:47.598Z,1.90
2019-04-04T14:00:19.720Z,1.20
2019-04-04T14:02:48.353Z,1.53
2019-04-04T14:05:16.878Z,2.10
2019-04-04T14:07:45.721Z,1.47
2019-04-04T14:10:17.035Z,1.00
2019-04-04T14:12:44.987Z,1.10
2019-04-04T14:15:13.822Z,1.20
2019-04-04T14:17:43.968Z,1.03
2019-04-04T14:20:31.809Z,1.17
2019-04-04T14:23:00.203Z,1.67
2019-04-04T14:25:29.622Z,1.53
2019-04-04T14:27:58.698Z,0.87
2019-04-04T14:30:27.234Z,1.10
2019-04-04T14:32:55.675Z,1.20
2019-04-04T14:35:24.063Z,0.97
2019-04-04T14:37:54.571Z,0.80
2019-04-04T14:40:22.768Z,0.60
2019-04-04T14:42:51.191Z,0.90
2019-04-04T14:45:19.587Z,0.70
2019-04-04T14:47:48.049Z,1.40
2019-04-04T14:50:16.561Z,0.70
2019-04-04T14:52:45.059Z,1.17
2019-04-04T14:55:13.522Z,1.23
2019-04-04T14:57:41.918Z,1.30
2019-04-04T15:00:15.916Z,1.00
2019-04-04T15:02:44.522Z,1.30
2019-04-04T15:05:12.993Z,1.07
2019-04-04T15:07:41.382Z,1.20
2019-04-04T15:10:10.296Z,1.27
2019-04-04T15:12:39.092Z,1.30
2019-04-04T15:15:08.852Z,1.00
2019-04-04T15:17:37.306Z,1.37
2019-04-04T15:20:06.946Z,1.67
2019-04-04T15:22:35.354Z,1.53
2019-04-04T15:25:04.119Z,1.50
2019-04-04T15:27:32.651Z,2.87
2019-04-04T15:30:01.200Z,2.00
2019-04-04T15:32:29.696Z,1.57
2019-04-04T15:34:58.488Z,2.27
2019-04-04T15:37:26.896Z,1.70
2019-04-04T15:39:55.374Z,2.00
2019-04-04T15:42:24.068Z,1.87
2019-04-04T15:44:52.459Z,1.43
2019-04-04T15:47:20.871Z,1.67
2019-04-04T15:49:49.336Z,2.37
2019-04-04T15:52:17.772Z,1.40
2019-04-04T15:54:46.179Z,1.40
2019-04-04T15:57:14.583Z,0.90
2019-04-04T15:59:42.977Z,1.17
2019-04-04T16:02:11.514Z,0.80
2019-04-04T16:04:39.963Z,1.00
2019-04-04T16:07:09.234Z,1.30
2019-04-04T16:09:37.627Z,2.17
2019-04-04T16:12:06.181Z,0.80
2019-04-04T16:14:34.651Z,1.77
2019-04-04T16:17:03.052Z,1.30
2019-04-04T16:19:31.457Z,0.90
2019-04-04T16:21:59.932Z,2.23
2019-04-04T16:24:28.373Z,0.90
2019-04-04T16:26:56.771Z,1.30
2019-04-04T16:29:25.302Z,0.80
2019-04-04T16:31:53.707Z,0.60
2019-04-04T16:34:22.146Z,0.70
2019-04-04T16:36:50.627Z,0.90
2019-04-04T16:39:19.019Z,1.03
2019-04-04T16:41:47.430Z,1.73
2019-04-04T16:44:15.821Z,0.83
2019-04-04T16:46:44.206Z,0.60
2019-04-04T16:49:12.825Z,0.87
2019-04-04T16:51:41.285Z,1.00
2019-04-04T16:54:09.798Z,0.80
2019-04-04T16:56:38.191Z,1.07
2019-04-04T16:59:06.817Z,1.10
2019-04-04T17:01:35.347Z,0.53
2019-04-04T17:04:04.002Z,0.93
2019-04-04T17:06:32.860Z,0.60
2019-04-04T17:09:01.248Z,0.80
2019-04-04T17:11:29.709Z,0.63
2019-04-04T17:13:58.116Z,0.60
2019-04-04T17:16:26.519Z,0.63
2019-04-04T17:18:55.129Z,0.40
2019-04-04T17:21:23.532Z,1.07
2019-04-04T17:23:51.907Z,0.77
2019-04-04T17:26:20.314Z,0.80
2019-04-04T17:28:49.130Z,0.60
2019-04-04T17:31:17.971Z,1.00
2019-04-04T17:33:48.176Z,0.57
2019-04-04T17:36:19.792Z,1.77
2019-04-04T17:38:47.097Z,1.70
2019-04-04T17:41:15.584Z,1.20
2019-04-04T17:43:43.970Z,0.93
2019-04-04T17:46:12.478Z,1.50
2019-04-04T17:48:41.251Z,0.97
2019-04-04T17:51:10.182Z,0.83
2019-04-04T17:53:38.672Z,1.17
2019-04-04T17:56:07.536Z,1.57
2019-04-04T17:58:37.998Z,2.93
2019-04-04T18:01:08.323Z,2.93
2019-04-04T18:03:36.715Z,2.50
2019-04-04T18:06:05.662Z,2.73
2019-04-04T18:08:34.099Z,5.63
2019-04-04T18:11:02.857Z,1.97
2019-04-04T18:13:32.313Z,4.87
2019-04-04T18:16:00.856Z,6.00
2019-04-04T18:18:29.318Z,3.53
2019-04-04T18:20:57.730Z,7.67
2019-04-04T18:23:26.178Z,6.67
2019-04-04T18:25:54.938Z,4.63
2019-04-04T18:28:23.351Z,5.43
2019-04-04T18:30:51.927Z,3.07
2019-04-04T18:33:20.674Z,3.33
2019-04-04T18:35:49.755Z,5.77
2019-04-04T18:38:18.409Z,3.47
2019-04-04T18:40:46.887Z,2.57
2019-04-04T18:43:15.275Z,2.87
2019-04-04T18:45:43.670Z,3.30
2019-04-04T18:48:12.077Z,3.17
2019-04-04T18:50:40.810Z,2.43
2019-04-04T18:53:09.255Z,2.50
2019-04-04T18:55:38.703Z,3.27
2019-04-04T18:58:07.183Z,3.20
2019-04-04T19:00:35.741Z,3.27
2019-04-04T19:03:04.271Z,3.23
2019-04-04T19:05:32.652Z,2.73
2019-04-04T19:08:01.163Z,4.87
2019-04-04T19:10:29.743Z,3.20
2019-04-04T19:13:05.193Z,3.13
2019-04-04T19:15:28.310Z,2.57
2019-04-04T19:17:56.992Z,2.90
2019-04-04T19:20:25.381Z,3.10
2019-04-04T19:22:53.771Z,3.17
2019-04-04T19:25:22.521Z,3.57
2019-04-04T19:27:51.030Z,3.27
2019-04-04T19:30:19.673Z,3.73
2019-04-04T19:32:48.066Z,3.20
2019-04-04T19:35:17.754Z,3.47
2019-04-04T19:37:46.155Z,2.93
2019-04-04T19:40:15.390Z,3.53
2019-04-04T19:42:44.134Z,3.20
2019-04-04T19:45:13.164Z,4.23
2019-04-04T19:47:41.683Z,4.37
2019-04-04T19:50:11.975Z,3.87
2019-04-04T19:52:40.356Z,4.33
2019-04-04T19:55:09.000Z,4.53
2019-04-04T19:57:37.386Z,4.67
2019-04-04T20:00:08.636Z,5.27
2019-04-04T20:02:37.031Z,4.80
2019-04-04T20:05:06.283Z,6.13
2019-04-04T20:07:34.675Z,4.77
2019-04-04T20:10:03.899Z,5.23
2019-04-04T20:12:32.574Z,5.40
2019-04-04T20:15:00.962Z,5.40
2019-04-04T20:17:29.375Z,5.67
2019-04-04T20:19:57.770Z,6.17
2019-04-04T20:22:26.167Z,6.17
2019-04-04T20:24:57.317Z,5.77
2019-04-04T20:27:24.682Z,5.93
2019-04-04T20:29:53.103Z,6.23
2019-04-04T20:32:21.489Z,6.83
2019-04-04T20:34:50.038Z,7.27
2019-04-04T20:37:18.431Z,6.43
2019-04-04T20:39:47.022Z,7.13
2019-04-04T20:42:15.418Z,6.10
2019-04-04T20:44:43.806Z,6.73
2019-04-04T20:47:12.215Z,7.33
2019-04-04T20:49:40.613Z,5.63
2019-04-04T20:52:09.014Z,7.53
2019-04-04T20:54:37.427Z,7.43
2019-04-04T20:57:05.819Z,5.80
2019-04-04T20:59:34.218Z,8.97
2019-04-04T21:02:02.691Z,7.10
2019-04-04T21:04:31.107Z,6.83
2019-04-04T21:06:59.513Z,6.47
2019-04-04T21:09:27.959Z,7.00
2019-04-04T21:11:56.673Z,7.00
2019-04-04T21:14:25.544Z,6.00
2019-04-04T21:16:53.918Z,6.57
2019-04-04T21:19:22.334Z,6.33
2019-04-04T21:21:50.777Z,6.50
2019-04-04T21:24:19.182Z,6.67
2019-04-04T21:26:47.576Z,8.07
2019-04-04T21:29:15.986Z,8.50
2019-04-04T21:31:44.413Z,8.07
2019-04-04T21:34:12.871Z,7.43
2019-04-04T21:36:41.305Z,7.37
2019-04-04T21:39:09.746Z,8.10
2019-04-04T21:41:38.148Z,6.87
2019-04-04T21:44:09.095Z,9.00
2019-04-04T21:46:36.657Z,7.60
2019-04-04T21:49:05.102Z,7.07
2019-04-04T21:51:33.527Z,7.00
2019-04-04T21:54:02.008Z,6.30
2019-04-04T21:56:30.403Z,7.67
2019-04-04T21:58:58.798Z,6.63
2019-04-04T22:01:27.286Z,7.43
2019-04-04T22:03:55.727Z,7.50
2019-04-04T22:06:24.115Z,7.83
2019-04-04T22:08:52.539Z,7.00
2019-04-04T22:11:20.930Z,6.90
2019-04-04T22:13:49.326Z,6.87
2019-04-04T22:16:17.738Z,7.30
2019-04-04T22:18:46.140Z,6.97
2019-04-04T22:21:14.550Z,9.20
2019-04-04T22:23:42.945Z,8.00
2019-04-04T22:26:11.372Z,9.43
2019-04-04T22:28:39.760Z,9.03
2019-04-04T22:31:08.156Z,9.20
2019-04-04T22:33:36.563Z,7.60
2019-04-04T22:36:05.038Z,9.10
2019-04-04T22:38:33.466Z,7.07
2019-04-04T22:41:01.839Z,8.50
2019-04-04T22:43:30.607Z,8.43
2019-04-04T22:45:59.026Z,13.03
2019-04-04T22:48:27.429Z,8.87
2019-04-04T22:50:55.814Z,8.93
2019-04-04T22:53:24.210Z,9.93
2019-04-04T22:55:52.618Z,9.73
2019-04-04T22:58:28.274Z,9.03
2019-04-04T23:00:51.480Z,7.43
2019-04-04T23:03:19.952Z,8.37
2019-04-04T23:05:48.360Z,9.10
2019-04-04T23:08:16.767Z,9.20
2019-04-04T23:10:45.186Z,6.53
2019-04-04T23:13:13.577Z,8.53
2019-04-04T23:15:41.982Z,7.20
2019-04-04T23:18:10.398Z,8.73
2019-04-04T23:20:38.791Z,7.77
2019-04-04T23:23:07.182Z,8.87
2019-04-04T23:25:35.590Z,9.63
2019-04-04T23:28:04.070Z,7.10
2019-04-04T23:30:32.463Z,8.37
2019-04-04T23:33:00.877Z,9.13
2019-04-04T23:35:29.305Z,8.63
2019-04-04T23:37:57.670Z,9.33
2019-04-04T23:40:26.083Z,11.53
2019-04-04T23:42:54.473Z,9.43
2019-04-04T23:45:22.869Z,9.20
2019-04-04T23:47:51.269Z,9.57
2019-04-04T23:50:19.677Z,8.87
2019-04-04T23:52:48.062Z,9.07
2019-04-04T23:55:16.451Z,8.20
2019-04-04T23:57:44.863Z,8.50
